createdAt,value
2022-09-27T00:00:08.076Z,21.87
2022-09-27T00:01:24.116Z,18.75
2022-09-27T00:04:31.610Z,18.31
2022-09-27T00:05:35.643Z,18.69
2022-09-27T00:06:42.633Z,19.06
2022-09-27T00:12:01.131Z,18.69
2022-09-27T00:14:25.332Z,18.44
2022-09-27T00:16:57.765Z,18.81
2022-09-27T00:19:38.448Z,17.50
2022-09-27T00:21:05.681Z,19.37
2022-09-27T00:21:48.863Z,16.60
2022-09-27T00:24:34.141Z,18.94
2022-09-27T00:25:48.436Z,12.13
2022-09-27T00:27:11.537Z,19.06
2022-09-27T00:29:23.905Z,19.81
2022-09-27T00:30:33.341Z,17.87
2022-09-27T00:32:23.478Z,17.44
2022-09-27T00:32:44.271Z,19.37
2022-09-27T00:33:54.138Z,19.62
2022-09-27T00:34:57.991Z,18.62
2022-09-27T00:36:06.390Z,18.62
2022-09-27T00:37:11.387Z,18.87
2022-09-27T00:38:15.478Z,19.12
2022-09-27T00:39:20.015Z,19.44
2022-09-27T00:40:24.458Z,19.44
2022-09-27T00:41:31.530Z,19.25
2022-09-27T00:42:35.567Z,19.50
2022-09-27T00:43:50.798Z,21.00
2022-09-27T00:45:03.737Z,16.69
2022-09-27T00:46:08.495Z,18.50
2022-09-27T00:49:02.029Z,18.87
2022-09-27T00:50:22.307Z,12.94
2022-09-27T00:51:26.495Z,19.75
2022-09-27T00:52:37.690Z,19.00
2022-09-27T00:53:54.885Z,19.25
2022-09-27T00:55:04.546Z,19.44
2022-09-27T00:56:18.166Z,17.44
2022-09-27T00:58:43.480Z,17.87
2022-09-27T00:59:53.288Z,20.06
2022-09-27T01:01:04.461Z,19.50
2022-09-27T01:02:10.071Z,19.06
2022-09-27T01:03:17.035Z,14.31
2022-09-27T01:04:25.680Z,19.69
2022-09-27T01:05:30.359Z,19.25
2022-09-27T01:06:37.108Z,19.81
2022-09-27T01:07:45.180Z,19.33
2022-09-27T01:08:58.186Z,20.37
2022-09-27T01:10:02.162Z,18.31
2022-09-27T01:11:34.653Z,19.31
2022-09-27T01:12:56.777Z,21.87
2022-09-27T01:14:07.835Z,23.19
2022-09-27T01:15:31.058Z,26.00
2022-09-27T01:16:50.031Z,30.44
2022-09-27T01:18:17.403Z,31.81
2022-09-27T01:19:36.122Z,39.50
2022-09-27T01:21:13.202Z,36.13
2022-09-27T01:22:25.906Z,32.87
2022-09-27T01:23:45.100Z,32.60
2022-09-27T01:25:06.769Z,30.37
2022-09-27T01:26:27.636Z,28.00
2022-09-27T01:32:13.193Z,30.19
2022-09-27T01:32:27.293Z,28.50
2022-09-27T01:33:24.477Z,32.00
2022-09-27T01:34:37.119Z,33.94
2022-09-27T01:35:55.787Z,37.94
2022-09-27T01:37:26.644Z,44.73
2022-09-27T01:38:39.633Z,49.00
2022-09-27T01:39:52.236Z,45.81
2022-09-27T01:41:08.353Z,45.40
2022-09-27T01:42:31.843Z,47.93
2022-09-27T01:43:40.158Z,43.93
2022-09-27T01:45:21.100Z,43.47
2022-09-27T01:48:00.018Z,31.44
2022-09-27T01:50:59.517Z,25.81
2022-09-27T01:52:12.692Z,26.12
2022-09-27T01:54:51.151Z,27.44
2022-09-27T02:00:10.848Z,50.13
2022-09-27T02:01:18.406Z,48.56
2022-09-27T02:02:28.043Z,45.56
2022-09-27T02:03:40.490Z,44.80
2022-09-27T02:08:46.228Z,19.19
2022-09-27T02:10:23.007Z,20.00
2022-09-27T02:11:23.341Z,20.88
2022-09-27T02:12:30.119Z,20.06
2022-09-27T02:13:53.808Z,20.44
2022-09-27T02:14:56.174Z,20.56
2022-09-27T02:16:25.028Z,18.12
2022-09-27T02:17:38.507Z,18.87
2022-09-27T02:18:51.107Z,18.75
2022-09-27T02:20:13.408Z,20.37
2022-09-27T02:21:12.504Z,19.06
2022-09-27T02:22:37.671Z,17.87
2022-09-27T02:23:48.957Z,20.19
2022-09-27T02:25:14.293Z,20.19
2022-09-27T02:29:40.627Z,17.50
2022-09-27T02:30:56.814Z,20.25
2022-09-27T02:32:01.073Z,20.50
2022-09-27T02:34:22.911Z,22.75
2022-09-27T02:35:42.643Z,20.69
2022-09-27T02:36:56.813Z,19.94
2022-09-27T02:38:01.954Z,19.19
2022-09-27T02:39:15.700Z,20.44
2022-09-27T02:40:15.366Z,19.81
2022-09-27T02:41:32.912Z,20.88
2022-09-27T02:42:31.121Z,22.00
2022-09-27T02:43:42.080Z,19.19
2022-09-27T02:46:58.824Z,19.87
2022-09-27T02:48:08.877Z,20.81
2022-09-27T02:49:32.120Z,21.44
2022-09-27T02:52:44.908Z,22.00
2022-09-27T02:54:06.874Z,22.25
2022-09-27T02:55:31.529Z,23.25
2022-09-27T02:56:52.045Z,30.31
2022-09-27T02:58:10.623Z,28.38
2022-09-27T02:59:33.532Z,29.00
2022-09-27T03:02:00.175Z,24.44
2022-09-27T03:02:22.269Z,28.40
2022-09-27T03:03:15.594Z,23.69
2022-09-27T03:04:32.592Z,18.56
2022-09-27T03:05:45.105Z,19.69
2022-09-27T03:06:49.835Z,20.50
2022-09-27T03:07:53.751Z,20.81
2022-09-27T03:08:57.842Z,21.12
2022-09-27T03:10:05.803Z,20.88
2022-09-27T03:11:22.442Z,22.13
2022-09-27T03:12:21.041Z,20.19
2022-09-27T03:13:50.203Z,20.75
2022-09-27T03:14:38.791Z,21.19
2022-09-27T03:21:28.346Z,23.56
2022-09-27T03:22:15.656Z,23.31
2022-09-27T03:23:20.063Z,22.50
2022-09-27T03:24:24.037Z,20.80
2022-09-27T03:25:30.162Z,20.44
2022-09-27T03:26:34.180Z,19.69
2022-09-27T03:34:38.635Z,18.75
2022-09-27T03:36:14.972Z,20.31
2022-09-27T03:49:51.233Z,20.62
2022-09-27T03:53:41.441Z,18.50
2022-09-27T03:56:16.902Z,20.69
2022-09-27T03:57:27.938Z,18.94
2022-09-27T03:58:36.114Z,20.44
2022-09-27T04:01:12.408Z,19.19
2022-09-27T04:02:28.378Z,19.87
2022-09-27T04:03:31.922Z,20.12
2022-09-27T04:04:54.360Z,19.94
2022-09-27T04:05:50.394Z,21.94
2022-09-27T04:07:18.801Z,20.75
2022-09-27T04:08:32.247Z,20.00
2022-09-27T04:12:42.655Z,29.75
2022-09-27T04:30:08.574Z,22.25
2022-09-27T04:32:33.959Z,24.69
2022-09-27T04:35:00.824Z,19.62
2022-09-27T04:36:04.981Z,23.25
2022-09-27T04:37:10.650Z,22.06
2022-09-27T04:41:34.293Z,21.80
2022-09-27T04:43:59.386Z,21.50
2022-09-27T04:50:01.059Z,22.94
2022-09-27T04:51:05.980Z,21.37
2022-09-27T04:52:09.984Z,21.50
2022-09-27T04:53:18.077Z,21.94
2022-09-27T04:54:47.463Z,19.69
2022-09-27T04:58:37.021Z,22.00
2022-09-27T05:00:52.191Z,21.81
2022-09-27T05:06:57.327Z,24.50
2022-09-27T05:08:03.468Z,23.87
2022-09-27T05:09:09.284Z,26.50
2022-09-27T05:10:22.206Z,26.50
2022-09-27T05:11:32.647Z,23.12
2022-09-27T05:13:06.751Z,23.31
2022-09-27T05:13:53.445Z,23.00
2022-09-27T05:15:31.863Z,22.19
2022-09-27T05:16:12.425Z,22.06
2022-09-27T05:17:16.874Z,22.19
2022-09-27T05:18:28.814Z,22.06
2022-09-27T05:19:38.178Z,22.06
2022-09-27T05:22:14.027Z,23.20
2022-09-27T05:23:36.659Z,21.56
2022-09-27T05:24:33.254Z,23.69
2022-09-27T05:25:50.398Z,22.06
2022-09-27T05:26:47.234Z,22.93
2022-09-27T05:27:55.519Z,22.81
2022-09-27T05:29:04.999Z,22.75
2022-09-27T05:30:15.470Z,27.25
2022-09-27T05:31:32.662Z,26.87
2022-09-27T05:32:38.474Z,25.69
2022-09-27T05:33:57.863Z,25.00
2022-09-27T05:37:12.359Z,23.06
2022-09-27T05:38:00.292Z,23.00
2022-09-27T05:39:10.626Z,22.69
2022-09-27T05:55:12.693Z,21.56
2022-09-27T05:56:12.762Z,23.25
2022-09-27T05:57:34.593Z,23.12
2022-09-27T05:59:43.956Z,23.62
2022-09-27T06:00:54.378Z,22.87
2022-09-27T06:01:58.395Z,23.38
2022-09-27T06:03:05.327Z,22.00
2022-09-27T06:04:14.112Z,23.69
2022-09-27T06:05:16.620Z,23.00
2022-09-27T06:06:20.973Z,23.50
2022-09-27T06:07:27.718Z,24.06
2022-09-27T06:26:02.163Z,26.87
2022-09-27T06:45:43.237Z,26.50
2022-09-27T06:47:37.369Z,27.00
2022-09-27T06:48:31.534Z,24.94
2022-09-27T06:49:36.156Z,24.50
2022-09-27T06:51:09.592Z,26.00
2022-09-27T06:51:33.127Z,25.00
2022-09-27T06:55:20.915Z,27.33
2022-09-27T06:56:36.973Z,28.87
2022-09-27T06:57:40.365Z,30.06
2022-09-27T06:58:44.228Z,31.69
2022-09-27T06:59:54.112Z,32.00
2022-09-27T07:02:48.483Z,32.00
2022-09-27T07:04:10.849Z,28.69
2022-09-27T07:05:35.487Z,30.94
2022-09-27T07:08:22.255Z,31.75
2022-09-27T07:08:56.921Z,31.81
2022-09-27T07:10:12.905Z,33.50
2022-09-27T07:11:29.721Z,31.37
2022-09-27T07:12:41.078Z,31.62
2022-09-27T07:13:45.275Z,30.06
2022-09-27T07:15:01.178Z,28.56
2022-09-27T07:16:05.297Z,28.12
2022-09-27T07:18:35.491Z,26.13
2022-09-27T07:19:57.693Z,26.12
2022-09-27T07:21:08.195Z,32.31
2022-09-27T07:22:17.599Z,25.06
2022-09-27T07:26:05.634Z,25.20
2022-09-27T07:27:19.090Z,23.87
2022-09-27T07:29:50.181Z,25.44
2022-09-27T07:31:02.566Z,26.47
2022-09-27T07:32:20.980Z,24.44
2022-09-27T07:33:33.812Z,25.56
2022-09-27T07:34:42.768Z,25.81
2022-09-27T07:39:57.676Z,26.75
2022-09-27T07:42:36.977Z,24.81
2022-09-27T07:43:33.001Z,27.56
2022-09-27T07:44:38.434Z,27.47
2022-09-27T07:45:45.728Z,24.31
2022-09-27T07:49:28.300Z,25.19
2022-09-27T07:50:58.662Z,27.60
2022-09-27T07:51:46.821Z,27.75
2022-09-27T07:55:58.959Z,27.06
2022-09-27T07:56:43.650Z,26.37
2022-09-27T07:58:33.106Z,28.38
2022-09-27T07:59:02.504Z,26.44
2022-09-27T08:00:24.129Z,26.00
2022-09-27T08:04:14.366Z,24.37
2022-09-27T08:06:29.824Z,28.12
2022-09-27T08:10:26.208Z,27.62
2022-09-27T08:12:04.127Z,27.81
2022-09-27T08:12:51.850Z,27.13
2022-09-27T08:14:17.989Z,27.75
2022-09-27T08:15:36.226Z,26.94
2022-09-27T08:16:42.234Z,27.87
2022-09-27T08:17:42.867Z,27.56
2022-09-27T08:18:54.222Z,30.27
2022-09-27T08:19:55.298Z,30.06
2022-09-27T08:21:07.502Z,28.38
2022-09-27T08:22:14.599Z,28.56
2022-09-27T08:23:25.835Z,29.19
2022-09-27T08:24:29.599Z,28.67
2022-09-27T08:26:37.066Z,29.56
2022-09-27T08:27:24.422Z,29.81
2022-09-27T08:30:02.953Z,26.80
2022-09-27T08:34:09.356Z,29.50
2022-09-27T08:35:29.560Z,30.44
2022-09-27T08:37:59.578Z,29.00
2022-09-27T08:40:43.832Z,26.80
2022-09-27T08:43:44.108Z,26.37
2022-09-27T08:57:16.155Z,28.38
2022-09-27T08:58:34.801Z,26.40
2022-09-27T09:08:43.601Z,29.19
2022-09-27T09:10:21.284Z,28.67
2022-09-27T09:11:52.430Z,28.62
2022-09-27T09:12:56.008Z,27.37
2022-09-27T09:14:24.862Z,28.19
2022-09-27T09:15:33.353Z,26.25
2022-09-27T09:16:55.845Z,26.20
2022-09-27T09:18:13.802Z,28.62
2022-09-27T09:19:34.628Z,27.87
2022-09-27T09:21:13.100Z,27.31
2022-09-27T09:22:44.065Z,26.75
2022-09-27T09:24:03.560Z,27.56
2022-09-27T09:25:14.531Z,25.20
2022-09-27T09:26:36.748Z,26.62
2022-09-27T09:27:49.684Z,26.87
2022-09-27T09:29:00.926Z,25.31
2022-09-27T09:30:14.853Z,26.20
2022-09-27T09:31:31.532Z,24.75
2022-09-27T09:32:51.973Z,27.81
2022-09-27T09:34:03.601Z,25.94
2022-09-27T09:35:32.677Z,27.00
2022-09-27T09:36:34.817Z,25.69
2022-09-27T09:37:46.506Z,25.25
2022-09-27T09:38:56.088Z,25.50
2022-09-27T09:40:20.880Z,24.94
2022-09-27T09:41:40.087Z,26.06
2022-09-27T09:42:58.741Z,23.19
2022-09-27T09:44:21.348Z,23.73
2022-09-27T09:45:38.198Z,25.06
2022-09-27T09:46:45.989Z,23.69
2022-09-27T09:48:03.888Z,25.81
2022-09-27T09:49:28.553Z,25.47
2022-09-27T09:50:56.857Z,25.69
2022-09-27T09:52:09.347Z,23.53
2022-09-27T09:53:34.060Z,24.12
2022-09-27T09:54:43.565Z,23.40
2022-09-27T10:09:30.376Z,26.31
2022-09-27T10:23:37.733Z,25.00
2022-09-27T10:26:05.702Z,26.00
2022-09-27T10:27:09.710Z,26.25
2022-09-27T10:34:06.347Z,25.44
2022-09-27T10:38:50.853Z,22.87
2022-09-27T10:39:54.102Z,27.69
2022-09-27T10:41:12.989Z,27.81
2022-09-27T10:42:35.864Z,27.69
2022-09-27T10:45:29.117Z,27.87
2022-09-27T10:46:38.362Z,25.00
2022-09-27T10:47:58.819Z,25.56
2022-09-27T10:49:35.002Z,25.44
2022-09-27T10:50:59.253Z,25.50
2022-09-27T11:25:18.155Z,26.94
2022-09-27T11:26:49.982Z,25.88
2022-09-27T11:28:09.239Z,25.81
2022-09-27T11:29:21.678Z,27.75
2022-09-27T11:30:35.951Z,27.87
2022-09-27T11:31:45.646Z,26.06
2022-09-27T11:33:10.655Z,27.81
2022-09-27T11:34:40.034Z,26.62
2022-09-27T11:35:52.728Z,26.06
2022-09-27T11:37:02.495Z,26.12
2022-09-27T11:38:34.614Z,26.31
2022-09-27T11:39:30.866Z,26.19
2022-09-27T11:42:22.306Z,27.50
2022-09-27T11:43:52.709Z,26.37
2022-09-27T11:46:45.069Z,27.56
2022-09-27T11:48:08.807Z,27.44
2022-09-27T11:49:31.958Z,27.75
2022-09-27T11:51:05.746Z,27.19
2022-09-27T11:52:27.646Z,27.75
2022-09-27T11:53:40.415Z,32.94
2022-09-27T11:56:35.162Z,29.06
2022-09-27T11:58:24.996Z,28.94
2022-09-27T11:59:31.296Z,28.50
2022-09-27T12:02:32.626Z,29.87
2022-09-27T12:03:46.110Z,28.87
2022-09-27T12:05:06.986Z,28.25
2022-09-27T12:09:20.423Z,28.94
2022-09-27T12:09:47.603Z,28.87
2022-09-27T12:11:11.966Z,28.87
2022-09-27T12:14:01.041Z,29.19
2022-09-27T12:15:09.895Z,28.75
2022-09-27T12:17:20.623Z,28.25
2022-09-27T12:17:33.986Z,30.44
2022-09-27T12:18:53.646Z,28.81
2022-09-27T12:23:17.284Z,27.80
2022-09-27T12:27:33.587Z,27.81
2022-09-27T12:33:31.769Z,29.69
2022-09-27T12:35:02.303Z,28.81
2022-09-27T12:36:09.248Z,28.81
2022-09-27T12:37:28.124Z,26.37
2022-09-27T12:38:55.763Z,28.31
2022-09-27T12:40:20.832Z,33.06
2022-09-27T12:41:28.933Z,32.44
2022-09-27T12:42:56.879Z,28.75
2022-09-27T12:44:03.423Z,28.31
2022-09-27T12:45:36.133Z,28.44
2022-09-27T12:47:16.275Z,29.81
2022-09-27T13:03:49.917Z,27.87
2022-09-27T13:05:13.322Z,27.06
2022-09-27T13:06:42.428Z,26.25
2022-09-27T13:08:22.008Z,26.75
2022-09-27T13:09:32.157Z,27.31
2022-09-27T13:11:01.447Z,27.80
2022-09-27T13:12:12.422Z,26.44
2022-09-27T13:13:17.151Z,27.31
2022-09-27T13:15:39.696Z,26.50
2022-09-27T13:16:09.728Z,26.69
2022-09-27T13:16:48.421Z,25.75
2022-09-27T13:18:02.391Z,27.13
2022-09-27T13:19:16.090Z,27.94
2022-09-27T13:21:57.614Z,27.00
2022-09-27T13:23:04.660Z,26.00
2022-09-27T13:24:30.782Z,25.94
2022-09-27T13:27:22.789Z,27.69
2022-09-27T13:28:32.625Z,28.00
2022-09-27T13:29:36.509Z,27.87
2022-09-27T13:30:45.324Z,27.81
2022-09-27T13:31:59.797Z,27.87
2022-09-27T13:33:30.802Z,27.87
2022-09-27T13:39:26.134Z,28.00
2022-09-27T13:41:14.602Z,27.81
2022-09-27T13:42:06.987Z,25.31
2022-09-27T13:43:17.696Z,27.56
2022-09-27T13:49:26.258Z,26.06
2022-09-27T13:50:39.793Z,27.75
2022-09-27T13:51:59.991Z,27.31
2022-09-27T13:53:26.148Z,27.75
2022-09-27T13:54:52.621Z,27.81
2022-09-27T13:56:14.854Z,27.81
2022-09-27T13:57:40.009Z,27.94
2022-09-27T13:59:07.582Z,27.50
2022-09-27T14:07:04.320Z,29.94
2022-09-27T14:07:13.710Z,30.19
2022-09-27T14:08:32.635Z,31.67
2022-09-27T14:13:08.601Z,31.25
2022-09-27T14:15:33.811Z,30.37
2022-09-27T14:18:18.598Z,28.31
2022-09-27T14:21:06.335Z,29.50
2022-09-27T14:24:45.472Z,29.33
2022-09-27T14:27:48.487Z,28.73
2022-09-27T14:32:24.989Z,29.19
2022-09-27T14:33:36.723Z,28.94
2022-09-27T14:35:10.730Z,28.93
2022-09-27T14:35:55.037Z,29.20
2022-09-27T14:38:36.432Z,28.31
2022-09-27T14:40:20.308Z,28.62
2022-09-27T14:40:21.899Z,29.25
2022-09-27T14:44:46.422Z,27.62
2022-09-27T14:45:56.070Z,28.31
2022-09-27T14:47:21.541Z,28.31
2022-09-27T14:50:21.541Z,30.06
2022-09-27T14:53:18.937Z,29.81
2022-09-27T14:56:08.461Z,28.06
2022-09-27T14:57:20.582Z,30.75
2022-09-27T14:59:54.005Z,31.06
2022-09-27T15:10:04.313Z,30.56
2022-09-27T15:14:32.215Z,35.25
2022-09-27T15:16:02.739Z,33.25
2022-09-27T15:16:48.669Z,32.50
2022-09-27T15:18:16.052Z,54.80
2022-09-27T15:19:26.683Z,33.19
2022-09-27T15:20:35.803Z,34.00
2022-09-27T15:21:39.996Z,32.63
2022-09-27T15:22:44.299Z,32.67
2022-09-27T15:23:51.788Z,32.94
2022-09-27T15:24:58.693Z,31.69
2022-09-27T15:26:08.880Z,32.13
2022-09-27T15:33:04.633Z,31.25
2022-09-27T15:33:42.632Z,33.00
2022-09-27T15:49:53.725Z,46.81
2022-09-27T15:53:45.904Z,34.44
2022-09-27T15:54:51.858Z,36.06
2022-09-27T15:56:02.847Z,35.19
2022-09-27T15:57:12.584Z,31.75
2022-09-27T15:58:27.670Z,33.00
2022-09-27T15:59:51.382Z,34.06
2022-09-27T16:04:28.234Z,33.00
2022-09-27T16:05:18.348Z,33.33
2022-09-27T16:08:35.803Z,33.81
2022-09-27T16:09:40.214Z,35.13
2022-09-27T16:10:58.887Z,33.56
2022-09-27T16:12:22.550Z,32.40
2022-09-27T16:16:41.995Z,31.69
2022-09-27T16:17:44.656Z,31.87
2022-09-27T16:19:57.872Z,31.94
2022-09-27T16:25:17.269Z,32.07
2022-09-27T16:26:39.905Z,32.50
2022-09-27T16:27:42.911Z,33.73
2022-09-27T16:28:48.523Z,33.69
2022-09-27T16:29:54.669Z,31.44
2022-09-27T16:31:08.089Z,32.20
2022-09-27T16:32:12.053Z,32.88
2022-09-27T16:33:22.067Z,33.53
2022-09-27T16:34:30.184Z,31.62
2022-09-27T16:35:36.817Z,32.00
2022-09-27T16:36:41.165Z,32.69
2022-09-27T16:51:51.506Z,33.25
2022-09-27T16:53:05.814Z,32.63
2022-09-27T16:55:22.090Z,35.40
2022-09-27T16:58:27.701Z,31.06
2022-09-27T16:59:21.156Z,33.38
2022-09-27T17:01:43.578Z,32.50
2022-09-27T17:02:52.866Z,31.69
2022-09-27T17:03:58.394Z,34.19
2022-09-27T17:05:06.441Z,33.13
2022-09-27T17:06:19.490Z,28.81
2022-09-27T17:07:34.013Z,33.63
2022-09-27T17:08:39.026Z,32.00
2022-09-27T17:09:45.626Z,33.63
2022-09-27T17:10:54.998Z,33.56
2022-09-27T17:13:28.230Z,32.88
2022-09-27T17:15:03.789Z,31.53
2022-09-27T17:17:31.227Z,33.56
2022-09-27T17:21:27.381Z,32.27
2022-09-27T17:22:44.467Z,31.56
2022-09-27T17:24:04.926Z,31.31
2022-09-27T17:25:14.601Z,32.38
2022-09-27T17:26:34.606Z,34.00
2022-09-27T17:27:51.242Z,32.73
2022-09-27T17:29:02.177Z,32.69
2022-09-27T17:30:08.638Z,32.07
2022-09-27T17:31:18.198Z,34.44
2022-09-27T17:33:53.255Z,33.87
2022-09-27T17:34:58.503Z,31.47
2022-09-27T17:36:03.293Z,31.06
2022-09-27T17:37:12.375Z,29.19
2022-09-27T17:38:14.735Z,30.69
2022-09-27T17:39:21.623Z,30.12
2022-09-27T17:40:28.841Z,29.87
2022-09-27T17:41:39.910Z,31.19
2022-09-27T17:42:43.244Z,27.33
2022-09-27T17:43:49.706Z,30.00
2022-09-27T17:45:00.250Z,30.50
2022-09-27T18:35:43.416Z,31.37
2022-09-27T18:36:49.031Z,23.07
2022-09-27T18:37:53.563Z,31.12
2022-09-27T18:39:03.645Z,30.50
2022-09-27T18:40:09.564Z,30.12
2022-09-27T18:41:19.996Z,30.62
2022-09-27T18:42:30.305Z,30.20
2022-09-27T18:45:07.781Z,29.75
2022-09-27T18:46:35.082Z,29.56
2022-09-27T18:47:38.237Z,28.50
2022-09-27T18:48:51.168Z,31.12
2022-09-27T18:56:41.921Z,29.31
2022-09-27T18:57:58.217Z,31.00
2022-09-27T18:59:10.444Z,31.25
2022-09-27T19:00:16.708Z,29.69
2022-09-27T19:01:30.849Z,31.00
2022-09-27T19:02:42.701Z,30.69
2022-09-27T19:03:59.511Z,29.69
2022-09-27T19:05:03.781Z,28.87
2022-09-27T19:07:17.886Z,31.37
2022-09-27T19:07:33.642Z,30.88
2022-09-27T19:08:41.203Z,26.87
2022-09-27T19:14:20.058Z,28.38
2022-09-27T19:15:31.303Z,32.19
2022-09-27T19:16:54.916Z,32.00
2022-09-27T19:17:45.140Z,31.75
2022-09-27T19:20:22.851Z,29.87
2022-09-27T19:21:29.740Z,28.06
2022-09-27T19:22:37.770Z,31.81
2022-09-27T19:23:43.698Z,30.47
2022-09-27T19:24:52.682Z,32.38
2022-09-27T19:25:58.078Z,29.81
2022-09-27T19:29:48.300Z,29.33
2022-09-27T19:30:54.033Z,31.25
2022-09-27T19:35:19.777Z,30.19
2022-09-27T19:38:03.855Z,32.25
2022-09-27T19:40:15.940Z,31.12
2022-09-27T19:40:32.357Z,28.60
2022-09-27T19:55:47.644Z,27.37
2022-09-27T19:56:53.395Z,28.69
2022-09-27T19:57:58.937Z,29.19
2022-09-27T19:59:08.139Z,26.87
2022-09-27T20:00:13.687Z,29.47
2022-09-27T20:02:31.824Z,29.25
2022-09-27T20:09:46.576Z,30.07
2022-09-27T20:11:06.127Z,27.37
2022-09-27T20:15:34.539Z,28.56
2022-09-27T20:19:46.959Z,29.37
2022-09-27T20:30:47.904Z,27.87
2022-09-27T20:32:02.900Z,27.81
2022-09-27T20:33:11.218Z,28.06
2022-09-27T20:36:09.805Z,26.87
2022-09-27T20:51:38.585Z,28.38
2022-09-27T20:52:52.898Z,28.50
2022-09-27T20:54:52.722Z,26.06
2022-09-27T20:55:10.918Z,27.75
2022-09-27T20:56:18.647Z,25.62
2022-09-27T20:57:40.229Z,27.50
2022-09-27T20:59:55.275Z,27.94
2022-09-27T21:01:07.158Z,25.25
2022-09-27T21:02:12.504Z,26.40
2022-09-27T21:03:21.788Z,26.19
2022-09-27T21:07:21.019Z,28.06
2022-09-27T21:08:33.648Z,28.06
2022-09-27T21:11:10.755Z,27.81
2022-09-27T21:13:52.707Z,28.38
2022-09-27T21:19:43.054Z,27.81
2022-09-27T21:20:41.414Z,27.13
2022-09-27T21:21:30.593Z,28.00
2022-09-27T21:21:45.404Z,28.00
2022-09-27T21:22:51.177Z,27.25
2022-09-27T21:23:59.984Z,27.75
2022-09-27T21:25:07.446Z,27.50
2022-09-27T21:26:18.562Z,27.50
2022-09-27T21:27:24.065Z,27.87
2022-09-27T21:28:35.954Z,27.69
2022-09-27T21:29:39.952Z,28.44
2022-09-27T21:32:06.876Z,26.44
2022-09-27T21:33:12.793Z,26.37
2022-09-27T21:34:16.667Z,28.00
2022-09-27T21:35:22.675Z,26.12
2022-09-27T21:36:31.804Z,27.25
2022-09-27T21:37:35.651Z,26.81
2022-09-27T21:38:40.430Z,26.06
2022-09-27T21:39:44.291Z,25.94
2022-09-27T21:40:55.889Z,26.80
2022-09-27T21:41:59.848Z,26.69
2022-09-27T21:43:03.796Z,27.69
2022-09-27T21:44:08.669Z,26.44
2022-09-27T21:45:13.642Z,24.19
2022-09-27T21:46:22.844Z,27.19
2022-09-27T21:47:26.781Z,27.94
2022-09-27T21:48:52.731Z,26.81
2022-09-27T21:49:58.951Z,27.06
2022-09-27T21:51:12.692Z,27.31
2022-09-27T21:52:16.603Z,25.75
2022-09-27T21:53:20.469Z,28.00
2022-09-27T21:54:25.924Z,26.67
2022-09-27T21:55:31.436Z,28.19
2022-09-27T21:56:39.290Z,27.81
2022-09-27T21:57:52.037Z,25.81
2022-09-27T22:00:44.323Z,27.44
2022-09-27T22:04:21.785Z,27.00
2022-09-27T22:05:29.254Z,25.62
2022-09-27T22:06:35.707Z,26.06
2022-09-27T22:07:43.596Z,27.44
2022-09-27T22:09:12.149Z,24.75
2022-09-27T22:11:05.674Z,25.69
2022-09-27T22:13:04.317Z,25.94
2022-09-27T22:15:32.774Z,26.37
2022-09-27T22:16:38.849Z,26.69
2022-09-27T22:17:42.922Z,26.44
2022-09-27T22:18:51.150Z,27.94
2022-09-27T22:19:54.993Z,25.06
2022-09-27T22:22:40.034Z,25.27
2022-09-27T22:24:20.274Z,27.47
2022-09-27T22:25:30.140Z,26.94
2022-09-27T22:26:39.163Z,26.44
2022-09-27T22:28:08.220Z,25.56
2022-09-27T22:29:21.839Z,24.75
2022-09-27T22:30:20.645Z,26.56
2022-09-27T22:32:31.630Z,27.07
2022-09-27T22:34:02.183Z,26.37
2022-09-27T22:35:12.725Z,26.94
2022-09-27T22:36:18.641Z,25.50
2022-09-27T22:37:22.626Z,26.81
2022-09-27T22:38:27.996Z,26.69
2022-09-27T22:39:33.518Z,26.06
2022-09-27T22:40:38.994Z,25.69
2022-09-27T22:41:43.129Z,27.00
2022-09-27T22:42:48.275Z,25.81
2022-09-27T22:43:53.841Z,26.06
2022-09-27T22:44:57.700Z,25.37
2022-09-27T22:46:03.401Z,25.44
2022-09-27T22:47:30.265Z,25.75
2022-09-27T22:48:15.707Z,25.13
2022-09-27T22:49:23.525Z,4.69
2022-09-27T22:50:29.435Z,26.31
2022-09-27T22:51:35.070Z,25.88
2022-09-27T22:52:40.044Z,25.94
2022-09-27T22:53:46.777Z,26.19
2022-09-27T22:54:59.327Z,25.06
2022-09-27T22:56:04.608Z,26.53
2022-09-27T22:57:10.333Z,27.13
2022-09-27T22:58:14.215Z,26.50
2022-09-27T22:59:19.680Z,24.56
2022-09-27T23:00:26.400Z,26.00
2022-09-27T23:01:30.424Z,25.19
2022-09-27T23:02:36.683Z,25.37
2022-09-27T23:04:33.496Z,25.50
2022-09-27T23:04:56.270Z,25.12
2022-09-27T23:06:03.163Z,24.06
2022-09-27T23:07:44.404Z,25.81
2022-09-27T23:08:20.862Z,26.73
2022-09-27T23:22:42.378Z,21.80
2022-09-27T23:25:35.838Z,23.69
2022-09-27T23:28:22.913Z,25.50
2022-09-27T23:30:55.764Z,24.63
2022-09-27T23:34:45.314Z,25.44
2022-09-27T23:36:01.099Z,22.19
2022-09-27T23:37:15.209Z,25.37
2022-09-27T23:38:19.193Z,25.44
2022-09-27T23:42:04.789Z,23.00
2022-09-27T23:43:40.946Z,22.25
2022-09-27T23:44:59.791Z,23.06
2022-09-27T23:45:48.778Z,23.31
2022-09-27T23:46:56.285Z,21.75
2022-09-27T23:48:40.253Z,22.87
2022-09-27T23:51:23.094Z,23.56
2022-09-27T23:52:33.661Z,23.62
2022-09-27T23:55:03.768Z,22.81
2022-09-27T23:56:14.661Z,22.25
2022-09-27T23:58:09.454Z,22.44
2022-09-27T23:59:03.139Z,22.81
2022-09-27T23:59:47.077Z,23.50
